createdAt,value
2018-05-06T00:00:17.367Z,53.41
2018-05-06T00:01:17.326Z,53.89
2018-05-06T00:02:17.282Z,53.70
2018-05-06T00:03:17.241Z,53.99
2018-05-06T00:04:17.204Z,54.27
2018-05-06T00:05:17.157Z,54.18
2018-05-06T00:06:17.117Z,54.56
2018-05-06T00:07:17.077Z,54.85
2018-05-06T00:08:17.034Z,54.94
2018-05-06T00:09:16.993Z,54.85
2018-05-06T00:10:17.003Z,54.85
2018-05-06T00:11:16.913Z,54.94
2018-05-06T00:12:16.872Z,54.66
2018-05-06T00:13:16.825Z,55.32
2018-05-06T00:14:16.803Z,55.04
2018-05-06T00:15:16.765Z,55.13
2018-05-06T00:16:16.703Z,55.04
2018-05-06T00:17:16.658Z,55.52
2018-05-06T00:18:16.614Z,55.13
2018-05-06T00:19:16.582Z,55.42
2018-05-06T00:20:16.533Z,55.61
2018-05-06T00:21:16.486Z,55.80
2018-05-06T00:22:16.443Z,55.87
2018-05-06T00:23:16.405Z,55.32
2018-05-06T00:24:16.364Z,55.52
2018-05-06T00:25:16.331Z,55.80
2018-05-06T00:26:16.278Z,55.61
2018-05-06T00:27:16.235Z,56.73
2018-05-06T00:28:16.195Z,56.45
2018-05-06T00:29:16.154Z,56.82
2018-05-06T00:30:16.109Z,56.63
2018-05-06T00:31:16.069Z,56.73
2018-05-06T00:32:16.025Z,56.54
2018-05-06T00:33:15.983Z,56.73
2018-05-06T00:34:16.654Z,56.35
2018-05-06T00:35:15.901Z,56.73
2018-05-06T00:36:15.865Z,57.11
2018-05-06T00:37:15.816Z,57.02
2018-05-06T00:38:15.772Z,57.50
2018-05-06T00:39:15.730Z,57.02
2018-05-06T00:40:15.688Z,57.21
2018-05-06T00:41:15.647Z,57.21
2018-05-06T00:42:15.607Z,57.21
2018-05-06T00:43:15.563Z,57.02
2018-05-06T00:44:15.520Z,57.59
2018-05-06T00:45:15.480Z,58.16
2018-05-06T00:46:15.445Z,58.36
2018-05-06T00:47:15.392Z,57.97
2018-05-06T00:48:15.358Z,58.54
2018-05-06T00:49:15.309Z,58.64
2018-05-06T00:50:15.268Z,58.54
2018-05-06T00:51:15.226Z,58.73
2018-05-06T00:52:15.187Z,58.54
2018-05-06T00:53:15.140Z,58.93
2018-05-06T00:54:15.098Z,59.12
2018-05-06T00:55:15.056Z,59.12
2018-05-06T00:56:15.014Z,59.09
2018-05-06T00:57:14.991Z,58.90
2018-05-06T00:58:14.932Z,59.56
2018-05-06T00:59:14.892Z,59.85
2018-05-06T01:00:14.852Z,59.66
2018-05-06T01:01:14.803Z,59.78
2018-05-06T01:02:14.759Z,59.66
2018-05-06T01:03:14.718Z,59.66
2018-05-06T01:04:14.683Z,59.28
2018-05-06T01:05:14.633Z,59.76
2018-05-06T01:06:14.595Z,60.33
2018-05-06T01:07:14.549Z,60.24
2018-05-06T01:08:14.507Z,60.33
2018-05-06T01:09:14.470Z,60.24
2018-05-06T01:10:14.421Z,60.24
2018-05-06T01:11:14.380Z,60.33
2018-05-06T01:12:14.340Z,60.33
2018-05-06T01:13:14.297Z,60.81
2018-05-06T01:14:14.254Z,61.29
2018-05-06T01:15:14.211Z,61.29
2018-05-06T01:16:14.169Z,60.90
2018-05-06T01:17:14.129Z,61.10
2018-05-06T01:18:14.086Z,61.66
2018-05-06T01:19:14.046Z,61.57
2018-05-06T01:20:13.999Z,61.29
2018-05-06T01:21:13.956Z,61.76
2018-05-06T01:22:13.920Z,61.66
2018-05-06T01:23:13.872Z,62.24
2018-05-06T01:24:13.833Z,62.15
2018-05-06T01:25:13.786Z,62.34
2018-05-06T01:26:13.745Z,63.00
2018-05-06T01:27:13.703Z,62.91
2018-05-06T01:28:13.661Z,63.64
2018-05-06T01:29:13.617Z,63.20
2018-05-06T01:30:13.574Z,63.64
2018-05-06T01:31:13.533Z,63.45
2018-05-06T01:32:13.493Z,63.64
2018-05-06T01:33:13.447Z,63.45
2018-05-06T01:34:13.402Z,64.02
2018-05-06T01:35:15.562Z,64.31
2018-05-06T01:36:13.321Z,64.50
2018-05-06T01:37:13.277Z,64.50
2018-05-06T01:38:13.233Z,65.26
2018-05-06T01:39:13.193Z,65.07
2018-05-06T01:40:13.149Z,64.78
2018-05-06T01:41:13.107Z,64.78
2018-05-06T01:42:13.064Z,65.26
2018-05-06T01:43:13.021Z,65.17
2018-05-06T01:44:12.979Z,65.55
2018-05-06T01:45:12.935Z,65.52
2018-05-06T01:46:12.892Z,65.61
2018-05-06T01:47:12.851Z,66.18
2018-05-06T01:48:12.811Z,66.28
2018-05-06T01:49:12.764Z,66.09
2018-05-06T01:50:12.725Z,65.80
2018-05-06T01:51:12.678Z,65.99
2018-05-06T01:52:12.636Z,66.18
2018-05-06T01:53:12.594Z,66.38
2018-05-06T01:54:12.550Z,65.89
2018-05-06T01:55:12.508Z,65.80
2018-05-06T01:56:12.465Z,66.09
2018-05-06T01:57:12.422Z,65.99
2018-05-06T01:58:12.380Z,65.99
2018-05-06T01:59:12.338Z,66.47
2018-05-06T02:00:12.296Z,66.66
2018-05-06T02:01:12.249Z,66.66
2018-05-06T02:02:12.208Z,66.75
2018-05-06T02:03:12.166Z,66.56
2018-05-06T02:04:12.125Z,66.56
2018-05-06T02:05:12.081Z,66.85
2018-05-06T02:06:12.036Z,66.66
2018-05-06T02:07:11.995Z,66.56
2018-05-06T02:08:11.954Z,66.66
2018-05-06T02:09:11.911Z,67.33
2018-05-06T02:10:11.865Z,67.23
2018-05-06T02:11:11.823Z,67.42
2018-05-06T02:12:11.780Z,67.42
2018-05-06T02:13:11.738Z,67.42
2018-05-06T02:14:11.693Z,67.61
2018-05-06T02:15:11.652Z,67.61
2018-05-06T02:16:11.608Z,67.42
2018-05-06T02:17:11.566Z,67.33
2018-05-06T02:18:11.524Z,67.61
2018-05-06T02:19:11.479Z,68.18
2018-05-06T02:20:11.439Z,67.99
2018-05-06T02:21:11.391Z,67.90
2018-05-06T02:22:11.352Z,67.80
2018-05-06T02:23:11.310Z,68.38
2018-05-06T02:24:11.267Z,67.80
2018-05-06T02:25:11.222Z,68.09
2018-05-06T02:26:11.182Z,67.80
2018-05-06T02:27:11.136Z,68.57
2018-05-06T02:28:11.093Z,67.90
2018-05-06T02:29:11.051Z,67.71
2018-05-06T02:30:11.006Z,68.09
2018-05-06T02:31:10.965Z,68.09
2018-05-06T02:32:10.925Z,68.28
2018-05-06T02:33:10.879Z,68.09
2018-05-06T02:34:10.834Z,68.09
2018-05-06T02:35:10.791Z,68.57
2018-05-06T02:36:15.915Z,68.76
2018-05-06T02:37:10.705Z,68.95
2018-05-06T02:38:10.665Z,68.57
2018-05-06T02:39:10.622Z,68.57
2018-05-06T02:40:10.578Z,68.57
2018-05-06T02:41:10.533Z,68.38
2018-05-06T02:42:10.491Z,68.76
2018-05-06T02:43:10.449Z,69.01
2018-05-06T02:44:10.409Z,68.76
2018-05-06T02:45:10.360Z,68.72
2018-05-06T02:46:10.320Z,69.23
2018-05-06T02:47:10.277Z,69.23
2018-05-06T02:48:10.265Z,69.29
2018-05-06T02:49:10.191Z,70.15
2018-05-06T02:50:10.150Z,69.87
2018-05-06T02:51:10.107Z,69.58
2018-05-06T02:52:10.062Z,70.15
2018-05-06T02:53:10.016Z,70.34
2018-05-06T02:54:09.983Z,70.15
2018-05-06T02:55:09.933Z,70.06
2018-05-06T02:56:09.888Z,69.96
2018-05-06T02:57:09.844Z,70.15
2018-05-06T02:58:09.802Z,70.25
2018-05-06T02:59:09.760Z,70.92
2018-05-06T03:00:09.718Z,71.11
2018-05-06T03:01:09.672Z,71.11
2018-05-06T03:02:09.628Z,71.01
2018-05-06T03:03:09.590Z,71.39
2018-05-06T03:04:09.545Z,71.30
2018-05-06T03:05:09.500Z,71.39
2018-05-06T03:06:09.456Z,71.58
2018-05-06T03:07:09.416Z,71.68
2018-05-06T03:08:09.371Z,71.48
2018-05-06T03:09:09.328Z,71.48
2018-05-06T03:10:09.288Z,72.16
2018-05-06T03:11:09.241Z,71.96
2018-05-06T03:12:09.199Z,71.77
2018-05-06T03:13:09.154Z,72.44
2018-05-06T03:14:09.110Z,72.25
2018-05-06T03:15:09.072Z,72.34
2018-05-06T03:16:09.026Z,72.63
2018-05-06T03:17:08.980Z,72.72
2018-05-06T03:18:08.938Z,72.60
2018-05-06T03:19:08.894Z,72.41
2018-05-06T03:20:08.853Z,73.26
2018-05-06T03:21:08.812Z,73.17
2018-05-06T03:22:08.767Z,72.88
2018-05-06T03:23:08.721Z,73.45
2018-05-06T03:24:08.678Z,73.17
2018-05-06T03:25:08.634Z,73.93
2018-05-06T03:26:08.608Z,73.65
2018-05-06T03:27:08.548Z,73.93
2018-05-06T03:28:08.507Z,74.02
2018-05-06T03:29:08.466Z,73.65
2018-05-06T03:30:08.421Z,73.93
2018-05-06T03:31:08.380Z,73.83
2018-05-06T03:32:08.349Z,74.88
2018-05-06T03:33:08.290Z,74.40
2018-05-06T03:34:08.243Z,74.50
2018-05-06T03:35:08.199Z,74.69
2018-05-06T03:36:08.159Z,74.79
2018-05-06T03:37:08.115Z,74.98
2018-05-06T03:38:08.072Z,74.69
2018-05-06T03:39:08.026Z,75.07
2018-05-06T03:40:07.985Z,74.88
2018-05-06T03:41:07.943Z,75.45
2018-05-06T03:42:07.899Z,75.84
2018-05-06T03:43:07.857Z,75.55
2018-05-06T03:44:07.814Z,75.64
2018-05-06T03:45:07.765Z,75.64
2018-05-06T03:46:07.724Z,76.03
2018-05-06T03:47:07.686Z,76.69
2018-05-06T03:48:07.637Z,76.12
2018-05-06T03:49:07.593Z,76.21
2018-05-06T03:50:07.548Z,76.12
2018-05-06T03:51:07.504Z,76.59
2018-05-06T03:52:07.463Z,76.50
2018-05-06T03:53:07.418Z,76.31
2018-05-06T03:54:07.377Z,76.27
2018-05-06T03:55:07.329Z,76.08
2018-05-06T03:56:07.290Z,76.50
2018-05-06T03:57:07.245Z,76.65
2018-05-06T03:58:07.204Z,76.27
2018-05-06T03:59:07.157Z,76.69
2018-05-06T04:00:07.114Z,76.31
2018-05-06T04:01:07.073Z,76.37
2018-05-06T04:02:07.026Z,76.31
2018-05-06T04:03:06.982Z,76.03
2018-05-06T04:04:06.938Z,76.50
2018-05-06T04:05:06.897Z,76.37
2018-05-06T04:06:06.856Z,76.94
2018-05-06T04:07:06.810Z,76.75
2018-05-06T04:08:06.765Z,76.94
2018-05-06T04:09:06.722Z,77.03
2018-05-06T04:10:06.678Z,77.42
2018-05-06T04:11:06.631Z,77.03
2018-05-06T04:12:06.590Z,76.94
2018-05-06T04:13:06.544Z,77.03
2018-05-06T04:14:06.504Z,76.94
2018-05-06T04:15:06.459Z,77.03
2018-05-06T04:16:06.417Z,76.84
2018-05-06T04:17:06.370Z,77.03
2018-05-06T04:18:06.328Z,76.84
2018-05-06T04:19:06.284Z,76.75
2018-05-06T04:20:06.242Z,76.18
2018-05-06T04:21:06.206Z,76.08
2018-05-06T04:22:06.153Z,76.46
2018-05-06T04:23:06.111Z,76.46
2018-05-06T04:24:06.067Z,76.46
2018-05-06T04:25:06.023Z,76.65
2018-05-06T04:26:05.978Z,76.84
2018-05-06T04:27:05.935Z,77.13
2018-05-06T04:28:05.889Z,77.13
2018-05-06T04:29:05.846Z,77.22
2018-05-06T04:30:05.802Z,77.03
2018-05-06T04:31:05.761Z,77.17
2018-05-06T04:32:05.716Z,77.17
2018-05-06T04:33:05.673Z,77.89
2018-05-06T04:34:05.632Z,77.42
2018-05-06T04:35:05.585Z,77.42
2018-05-06T04:36:05.543Z,77.80
2018-05-06T04:37:05.498Z,77.93
2018-05-06T04:38:05.454Z,77.42
2018-05-06T04:39:05.413Z,77.51
2018-05-06T04:40:05.369Z,77.03
2018-05-06T04:41:05.326Z,77.26
2018-05-06T04:42:05.281Z,77.83
2018-05-06T04:43:05.234Z,77.55
2018-05-06T04:44:05.191Z,77.42
2018-05-06T04:45:05.151Z,77.51
2018-05-06T04:46:05.103Z,77.32
2018-05-06T04:47:05.068Z,77.51
2018-05-06T04:48:05.028Z,77.22
2018-05-06T04:49:04.973Z,77.07
2018-05-06T04:50:04.929Z,76.98
2018-05-06T04:51:04.888Z,76.79
2018-05-06T04:52:04.850Z,77.36
2018-05-06T04:53:04.806Z,77.17
2018-05-06T04:54:04.755Z,77.07
2018-05-06T04:55:04.711Z,77.17
2018-05-06T04:56:04.668Z,77.17
2018-05-06T04:57:04.624Z,76.98
2018-05-06T04:58:04.580Z,77.17
2018-05-06T04:59:04.556Z,76.98
2018-05-06T05:00:04.495Z,76.98
2018-05-06T05:01:04.451Z,77.07
2018-05-06T05:02:04.408Z,76.79
2018-05-06T05:03:04.363Z,76.98
2018-05-06T05:04:04.327Z,76.69
2018-05-06T05:05:04.279Z,76.79
2018-05-06T05:06:04.231Z,76.59
2018-05-06T05:07:04.188Z,76.50
2018-05-06T05:08:04.151Z,76.31
2018-05-06T05:09:04.103Z,76.21
2018-05-06T05:10:04.060Z,76.21
2018-05-06T05:11:04.014Z,76.31
2018-05-06T05:12:03.972Z,76.79
2018-05-06T05:13:03.977Z,76.79
2018-05-06T05:14:03.889Z,76.59
2018-05-06T05:15:03.842Z,76.69
2018-05-06T05:16:03.837Z,77.17
2018-05-06T05:17:03.756Z,76.69
2018-05-06T05:18:03.711Z,76.92
2018-05-06T05:19:03.668Z,76.50
2018-05-06T05:20:03.622Z,76.54
2018-05-06T05:21:03.583Z,76.16
2018-05-06T05:22:03.542Z,75.87
2018-05-06T05:23:03.497Z,75.96
2018-05-06T05:24:03.449Z,75.87
2018-05-06T05:25:03.405Z,75.87
2018-05-06T05:26:03.362Z,75.49
2018-05-06T05:27:03.320Z,75.49
2018-05-06T05:28:03.277Z,75.59
2018-05-06T05:29:03.230Z,75.87
2018-05-06T05:30:03.190Z,75.87
2018-05-06T05:31:03.145Z,75.87
2018-05-06T05:32:03.103Z,75.68
2018-05-06T05:33:03.063Z,75.96
2018-05-06T05:34:03.016Z,75.68
2018-05-06T05:35:02.974Z,75.20
2018-05-06T05:36:02.933Z,74.92
2018-05-06T05:37:02.884Z,75.01
2018-05-06T05:38:02.852Z,75.30
2018-05-06T05:39:02.800Z,75.01
2018-05-06T05:40:02.757Z,75.30
2018-05-06T05:41:02.710Z,75.15
2018-05-06T05:42:02.671Z,74.48
2018-05-06T05:43:02.628Z,75.24
2018-05-06T05:44:02.587Z,75.43
2018-05-06T05:45:02.543Z,74.96
2018-05-06T05:46:02.498Z,75.15
2018-05-06T05:47:02.457Z,75.05
2018-05-06T05:48:02.414Z,75.05
2018-05-06T05:49:02.370Z,74.86
2018-05-06T05:50:02.327Z,74.10
2018-05-06T05:51:02.280Z,73.72
2018-05-06T05:52:02.241Z,74.19
2018-05-06T05:53:02.195Z,73.91
2018-05-06T05:54:02.153Z,73.33
2018-05-06T05:55:02.117Z,72.86
2018-05-06T05:56:02.071Z,72.09
2018-05-06T05:57:02.022Z,71.72
2018-05-06T05:58:01.980Z,70.86
2018-05-06T05:59:01.937Z,71.66
2018-05-06T06:00:01.894Z,71.75
2018-05-06T06:01:01.851Z,71.94
2018-05-06T06:02:01.806Z,71.75
2018-05-06T06:03:01.764Z,70.98
2018-05-06T06:04:01.722Z,70.03
2018-05-06T06:05:01.679Z,69.93
2018-05-06T06:06:01.641Z,69.37
2018-05-06T06:07:01.592Z,69.46
2018-05-06T06:08:01.553Z,69.84
2018-05-06T06:09:01.507Z,69.27
2018-05-06T06:10:01.463Z,69.93
2018-05-06T06:11:01.421Z,69.08
2018-05-06T06:12:01.380Z,69.27
2018-05-06T06:13:01.341Z,69.02
2018-05-06T06:14:01.290Z,69.68
2018-05-06T06:15:01.251Z,69.68
2018-05-06T06:16:01.207Z,69.31
2018-05-06T06:17:01.164Z,69.21
2018-05-06T06:18:01.125Z,69.21
2018-05-06T06:19:01.137Z,68.54
2018-05-06T06:20:01.035Z,67.97
2018-05-06T06:21:00.992Z,68.92
2018-05-06T06:22:00.953Z,68.92
2018-05-06T06:23:00.907Z,68.92
2018-05-06T06:24:00.867Z,68.54
2018-05-06T06:25:00.827Z,69.02
2018-05-06T06:26:00.778Z,68.63
2018-05-06T06:27:00.738Z,68.16
2018-05-06T06:28:00.699Z,68.67
2018-05-06T06:29:00.655Z,69.15
2018-05-06T06:30:00.609Z,69.34
2018-05-06T06:31:00.565Z,69.05
2018-05-06T06:32:00.526Z,69.62
2018-05-06T06:33:00.500Z,70.01
2018-05-06T06:34:00.438Z,69.43
2018-05-06T06:35:00.394Z,69.53
2018-05-06T06:36:00.357Z,69.72
2018-05-06T06:37:00.314Z,68.32
2018-05-06T06:38:00.271Z,68.51
2018-05-06T06:39:00.231Z,68.70
2018-05-06T06:40:00.185Z,68.13
2018-05-06T06:41:00.141Z,67.94
2018-05-06T06:42:00.099Z,68.04
2018-05-06T06:43:00.057Z,67.75
2018-05-06T06:44:00.019Z,67.08
2018-05-06T06:44:59.971Z,67.18
2018-05-06T06:45:59.933Z,67.36
2018-05-06T06:46:59.891Z,67.55
2018-05-06T06:47:59.868Z,68.23
2018-05-06T06:48:59.805Z,66.60
2018-05-06T06:49:59.761Z,66.92
2018-05-06T06:50:59.722Z,66.73
2018-05-06T06:51:59.677Z,66.83
2018-05-06T06:52:59.633Z,66.16
2018-05-06T06:53:59.595Z,66.35
2018-05-06T06:54:59.552Z,65.87
2018-05-06T06:55:59.509Z,65.68
2018-05-06T06:56:59.466Z,65.01
2018-05-06T06:57:59.426Z,64.91
2018-05-06T06:58:59.381Z,64.25
2018-05-06T06:59:59.341Z,64.75
2018-05-06T07:00:59.301Z,64.62
2018-05-06T07:01:59.261Z,64.47
2018-05-06T07:02:59.215Z,64.37
2018-05-06T07:03:59.176Z,62.94
2018-05-06T07:04:59.129Z,63.13
2018-05-06T07:05:59.181Z,63.03
2018-05-06T07:06:59.047Z,62.94
2018-05-06T07:07:59.005Z,62.27
2018-05-06T07:08:58.964Z,62.37
2018-05-06T07:09:58.924Z,61.69
2018-05-06T07:10:58.880Z,62.17
2018-05-06T07:11:58.839Z,62.11
2018-05-06T07:12:58.796Z,60.86
2018-05-06T07:13:58.757Z,60.00
2018-05-06T07:14:58.715Z,60.00
2018-05-06T07:15:58.670Z,60.58
2018-05-06T07:16:58.633Z,60.58
2018-05-06T07:17:58.604Z,60.67
2018-05-06T07:18:58.546Z,60.19
2018-05-06T07:19:58.506Z,59.81
2018-05-06T07:20:58.469Z,59.27
2018-05-06T07:21:58.432Z,60.70
2018-05-06T07:22:58.385Z,60.13
2018-05-06T07:23:58.341Z,60.41
2018-05-06T07:24:58.304Z,59.45
2018-05-06T07:25:58.257Z,58.79
2018-05-06T07:26:58.252Z,59.17
2018-05-06T07:27:58.175Z,58.22
2018-05-06T07:28:58.135Z,58.22
2018-05-06T07:29:58.124Z,57.76
2018-05-06T07:30:58.048Z,57.38
2018-05-06T07:31:58.010Z,57.57
2018-05-06T07:32:57.969Z,57.76
2018-05-06T07:33:57.924Z,56.99
2018-05-06T07:34:57.886Z,55.75
2018-05-06T07:35:57.860Z,56.42
2018-05-06T07:36:57.801Z,55.68
2018-05-06T07:37:57.761Z,54.82
2018-05-06T07:38:57.718Z,55.49
2018-05-06T07:39:57.677Z,55.40
2018-05-06T07:40:57.639Z,55.13
2018-05-06T07:41:57.600Z,52.95
2018-05-06T07:42:57.555Z,50.99
2018-05-06T07:43:57.517Z,49.00
2018-05-06T07:44:57.474Z,47.99
2018-05-06T07:45:57.433Z,46.86
2018-05-06T07:46:57.390Z,45.34
2018-05-06T07:47:57.352Z,44.19
2018-05-06T07:48:57.336Z,43.44
2018-05-06T07:49:57.269Z,42.69
2018-05-06T07:50:57.229Z,41.75
2018-05-06T07:51:57.188Z,41.94
2018-05-06T07:52:57.151Z,41.48
2018-05-06T07:53:57.110Z,41.48
2018-05-06T07:54:57.073Z,40.72
2018-05-06T07:55:57.033Z,39.86
2018-05-06T07:56:56.990Z,39.49
2018-05-06T07:57:56.952Z,39.22
2018-05-06T07:58:56.947Z,39.03
2018-05-06T07:59:56.874Z,39.22
2018-05-06T08:00:56.835Z,38.37
2018-05-06T08:01:56.800Z,36.74
2018-05-06T08:02:56.763Z,36.36
2018-05-06T08:03:56.721Z,35.80
2018-05-06T08:04:56.685Z,34.92
2018-05-06T08:05:56.644Z,35.21
2018-05-06T08:06:56.605Z,33.97
2018-05-06T08:07:56.568Z,33.59
2018-05-06T08:08:56.536Z,33.60
2018-05-06T08:09:56.492Z,33.02
2018-05-06T08:10:56.480Z,34.09
2018-05-06T08:11:56.415Z,33.81
2018-05-06T08:12:56.378Z,32.84
2018-05-06T08:13:56.343Z,32.56
2018-05-06T08:14:56.304Z,32.37
2018-05-06T08:15:56.268Z,31.21
2018-05-06T08:16:56.227Z,30.73
2018-05-06T08:17:56.192Z,31.42
2018-05-06T08:18:56.155Z,31.31
2018-05-06T08:19:56.116Z,31.52
2018-05-06T08:20:56.079Z,31.23
2018-05-06T08:21:56.043Z,31.13
2018-05-06T08:22:56.003Z,31.42
2018-05-06T08:23:55.967Z,30.94
2018-05-06T08:24:55.930Z,31.05
2018-05-06T08:25:55.895Z,30.38
2018-05-06T08:26:55.856Z,29.71
2018-05-06T08:27:55.841Z,29.90
2018-05-06T08:28:55.801Z,30.19
2018-05-06T08:29:55.749Z,30.68
2018-05-06T08:30:55.711Z,29.82
2018-05-06T08:31:56.320Z,29.62
2018-05-06T08:32:55.636Z,30.21
2018-05-06T08:34:55.613Z,28.36
2018-05-06T08:35:55.541Z,28.26
2018-05-06T08:36:55.492Z,28.36
2018-05-06T08:37:55.461Z,28.26
2018-05-06T08:38:55.418Z,28.45
2018-05-06T08:39:55.383Z,29.33
2018-05-06T08:40:55.343Z,28.45
2018-05-06T08:41:55.314Z,27.10
2018-05-06T08:42:55.273Z,27.29
2018-05-06T08:43:55.257Z,28.47
2018-05-06T08:44:55.198Z,28.47
2018-05-06T08:45:55.170Z,28.47
2018-05-06T08:46:55.132Z,28.38
2018-05-06T08:47:55.093Z,28.96
2018-05-06T08:48:55.059Z,27.11
2018-05-06T08:49:55.018Z,28.39
2018-05-06T08:50:54.984Z,27.22
2018-05-06T08:51:54.948Z,27.61
2018-05-06T08:52:54.921Z,28.00
2018-05-06T08:53:54.877Z,27.61
2018-05-06T08:54:54.840Z,28.49
2018-05-06T08:55:54.816Z,28.30
2018-05-06T08:56:54.772Z,28.69
2018-05-06T08:57:54.736Z,28.40
2018-05-06T08:58:54.702Z,28.89
2018-05-06T08:59:54.666Z,27.33
2018-05-06T09:00:54.638Z,27.43
2018-05-06T09:01:54.597Z,26.37
2018-05-06T09:02:54.568Z,25.98
2018-05-06T09:03:54.528Z,26.08
2018-05-06T09:04:54.493Z,25.98
2018-05-06T09:05:54.458Z,26.28
2018-05-06T09:06:54.427Z,27.34
2018-05-06T09:07:54.394Z,27.15
2018-05-06T09:08:54.366Z,26.95
2018-05-06T09:10:54.292Z,26.67
2018-05-06T09:11:54.260Z,26.97
2018-05-06T09:12:54.219Z,26.47
2018-05-06T09:13:54.187Z,25.98
2018-05-06T09:14:54.152Z,27.36
2018-05-06T09:15:54.134Z,26.58
2018-05-06T09:16:54.082Z,26.48
2018-05-06T09:17:54.049Z,26.48
2018-05-06T09:18:54.014Z,25.90
2018-05-06T09:19:54.013Z,25.99
2018-05-06T09:20:53.948Z,25.99
2018-05-06T09:21:53.912Z,27.26
2018-05-06T09:22:53.879Z,25.90
2018-05-06T09:23:53.847Z,25.90
2018-05-06T09:24:53.840Z,26.97
2018-05-06T09:25:53.780Z,27.45
2018-05-06T09:26:53.746Z,25.90
2018-05-06T09:27:53.714Z,25.90
2018-05-06T09:28:53.680Z,25.99
2018-05-06T09:29:53.643Z,25.90
2018-05-06T09:30:53.611Z,26.09
2018-05-06T09:31:53.628Z,26.87
2018-05-06T09:32:53.544Z,25.90
2018-05-06T09:33:53.515Z,26.19
2018-05-06T09:34:53.478Z,26.97
2018-05-06T09:35:53.450Z,25.80
2018-05-06T09:36:53.411Z,26.68
2018-05-06T09:37:53.378Z,26.68
2018-05-06T09:38:53.344Z,26.09
2018-05-06T09:39:53.315Z,26.68
2018-05-06T09:40:53.279Z,26.68
2018-05-06T09:41:53.244Z,27.16
2018-05-06T09:42:53.212Z,25.70
2018-05-06T09:43:53.182Z,26.29
2018-05-06T09:44:53.147Z,26.10
2018-05-06T09:45:53.119Z,25.42
2018-05-06T09:46:53.083Z,25.71
2018-05-06T09:47:53.127Z,25.52
2018-05-06T09:48:53.018Z,25.42
2018-05-06T09:49:52.984Z,26.30
2018-05-06T09:50:52.951Z,25.91
2018-05-06T09:51:52.918Z,25.23
2018-05-06T09:52:52.921Z,25.53
2018-05-06T09:53:52.922Z,26.10
2018-05-06T09:54:52.819Z,25.23
2018-05-06T09:55:52.787Z,25.23
2018-05-06T09:56:52.753Z,25.92
2018-05-06T09:57:52.720Z,25.71
2018-05-06T09:58:52.688Z,24.85
2018-05-06T09:59:52.659Z,24.07
2018-05-06T10:00:52.624Z,25.53
2018-05-06T10:01:52.593Z,26.21
2018-05-06T10:02:52.561Z,25.34
2018-05-06T10:03:52.531Z,24.27
2018-05-06T10:04:52.496Z,24.38
2018-05-06T10:05:52.464Z,25.05
2018-05-06T10:06:52.432Z,24.87
2018-05-06T10:07:52.395Z,24.38
2018-05-06T10:08:52.363Z,24.48
2018-05-06T10:09:52.334Z,24.08
2018-05-06T10:10:52.300Z,25.16
2018-05-06T10:11:52.265Z,25.25
2018-05-06T10:12:52.234Z,25.07
2018-05-06T10:13:52.201Z,24.88
2018-05-06T10:14:52.167Z,25.36
2018-05-06T10:15:52.154Z,25.26
2018-05-06T10:16:52.104Z,24.29
2018-05-06T10:17:52.070Z,24.57
2018-05-06T10:18:52.036Z,25.74
2018-05-06T10:19:52.003Z,24.38
2018-05-06T10:20:51.972Z,23.89
2018-05-06T10:21:51.943Z,23.69
2018-05-06T10:22:51.906Z,25.74
2018-05-06T10:23:51.874Z,25.54
2018-05-06T10:24:51.839Z,26.13
2018-05-06T10:25:51.882Z,23.79
2018-05-06T10:26:51.773Z,25.07
2018-05-06T10:27:51.740Z,25.56
2018-05-06T10:28:51.709Z,25.65
2018-05-06T10:29:51.675Z,23.90
2018-05-06T10:30:51.641Z,26.04
2018-05-06T10:31:51.610Z,24.10
2018-05-06T10:32:51.581Z,24.00
2018-05-06T10:33:51.546Z,22.94
2018-05-06T10:34:51.513Z,23.80
2018-05-06T10:35:51.516Z,23.82
2018-05-06T10:36:51.450Z,22.84
2018-05-06T10:37:51.412Z,24.30
2018-05-06T10:38:51.380Z,23.91
2018-05-06T10:39:51.348Z,24.99
2018-05-06T10:40:51.317Z,23.72
2018-05-06T10:41:51.285Z,23.13
2018-05-06T10:42:51.248Z,23.62
2018-05-06T10:43:51.217Z,23.43
2018-05-06T10:44:51.185Z,22.94
2018-05-06T10:45:51.152Z,23.23
2018-05-06T10:46:51.119Z,23.13
2018-05-06T10:47:51.088Z,23.14
2018-05-06T10:48:51.053Z,23.63
2018-05-06T10:49:51.025Z,24.22
2018-05-06T10:50:50.991Z,23.83
2018-05-06T10:51:50.960Z,23.54
2018-05-06T10:52:50.929Z,22.56
2018-05-06T10:53:50.896Z,23.73
2018-05-06T10:54:50.866Z,23.83
2018-05-06T10:55:50.831Z,23.25
2018-05-06T10:56:50.797Z,23.74
2018-05-06T10:57:50.774Z,23.83
2018-05-06T10:58:50.731Z,22.09
2018-05-06T10:59:50.699Z,21.70
2018-05-06T11:00:50.666Z,19.65
2018-05-06T11:01:50.633Z,20.45
2018-05-06T11:02:50.655Z,20.64
2018-05-06T11:03:50.574Z,19.87
2018-05-06T11:04:50.540Z,19.87
2018-05-06T11:05:50.513Z,19.29
2018-05-06T11:06:50.477Z,19.20
2018-05-06T11:07:50.450Z,19.70
2018-05-06T11:08:50.412Z,19.51
2018-05-06T11:09:50.386Z,19.22
2018-05-06T11:10:50.352Z,17.27
2018-05-06T11:11:50.325Z,18.25
2018-05-06T11:12:50.323Z,17.48
2018-05-06T11:13:50.258Z,17.38
2018-05-06T11:14:50.227Z,17.39
2018-05-06T11:15:50.198Z,17.60
2018-05-06T11:16:50.176Z,17.50
2018-05-06T11:17:50.143Z,17.71
2018-05-06T11:18:50.157Z,16.35
2018-05-06T11:19:50.079Z,16.05
2018-05-06T11:20:50.073Z,15.86
2018-05-06T11:21:50.024Z,15.48
2018-05-06T11:22:50.000Z,15.58
2018-05-06T11:23:49.985Z,15.69
2018-05-06T11:24:49.928Z,14.90
2018-05-06T11:25:49.899Z,15.00
2018-05-06T11:26:49.871Z,14.61
2018-05-06T11:27:49.843Z,15.01
2018-05-06T11:28:49.813Z,14.83
2018-05-06T11:29:49.785Z,14.53
2018-05-06T11:30:49.756Z,13.54
2018-05-06T11:31:49.730Z,13.74
2018-05-06T11:32:49.698Z,13.44
2018-05-06T11:33:49.678Z,13.74
2018-05-06T11:34:49.642Z,13.64
2018-05-06T11:35:49.611Z,13.64
2018-05-06T11:36:49.582Z,14.34
2018-05-06T11:37:49.555Z,13.75
2018-05-06T11:38:49.526Z,12.66
2018-05-06T11:39:49.505Z,12.76
2018-05-06T11:40:49.502Z,12.96
2018-05-06T11:41:49.454Z,13.76
2018-05-06T11:42:49.469Z,13.46
2018-05-06T11:43:49.388Z,12.67
2018-05-06T11:44:49.360Z,12.57
2018-05-06T11:45:49.328Z,12.47
2018-05-06T11:46:49.310Z,12.77
2018-05-06T11:47:49.278Z,12.97
2018-05-06T11:48:49.246Z,12.68
2018-05-06T11:49:49.211Z,13.07
2018-05-06T11:50:49.189Z,12.18
2018-05-06T11:51:49.157Z,12.38
2018-05-06T11:52:49.132Z,12.48
2018-05-06T11:53:49.104Z,12.38
2018-05-06T11:54:49.078Z,12.38
2018-05-06T11:55:49.046Z,12.57
2018-05-06T11:56:49.019Z,12.28
2018-05-06T11:57:48.987Z,12.38
2018-05-06T11:58:48.959Z,12.08
2018-05-06T11:59:48.937Z,12.18
2018-05-06T12:00:48.908Z,12.28
2018-05-06T12:01:48.875Z,12.48
2018-05-06T12:02:48.849Z,12.68
2018-05-06T12:03:48.855Z,12.57
2018-05-06T12:04:48.790Z,12.08
2018-05-06T12:05:48.767Z,11.99
2018-05-06T12:06:48.734Z,12.58
2018-05-06T12:07:48.714Z,11.89
2018-05-06T12:08:48.679Z,12.18
2018-05-06T12:09:48.655Z,11.89
2018-05-06T12:10:48.620Z,12.29
2018-05-06T12:11:48.592Z,12.48
2018-05-06T12:12:48.564Z,12.29
2018-05-06T12:13:48.534Z,12.98
2018-05-06T12:14:48.510Z,12.68
2018-05-06T12:15:48.479Z,12.38
2018-05-06T12:16:48.453Z,12.29
2018-05-06T12:17:48.460Z,11.29
2018-05-06T12:18:48.398Z,11.99
2018-05-06T12:19:48.383Z,11.99
2018-05-06T12:20:48.336Z,11.69
2018-05-06T12:21:48.313Z,12.29
2018-05-06T12:22:48.280Z,12.38
2018-05-06T12:23:48.265Z,11.99
2018-05-06T12:24:48.227Z,11.98
2018-05-06T12:25:48.197Z,11.88
2018-05-06T12:26:48.198Z,12.46
2018-05-06T12:27:48.142Z,12.75
2018-05-06T12:28:48.118Z,13.13
2018-05-06T12:29:48.085Z,13.61
2018-05-06T12:30:48.059Z,14.98
2018-05-06T12:31:48.030Z,14.96
2018-05-06T12:32:47.998Z,15.05
2018-05-06T12:33:47.970Z,15.72
2018-05-06T12:34:47.939Z,16.69
2018-05-06T12:35:47.913Z,16.39
2018-05-06T12:36:47.881Z,16.28
2018-05-06T12:37:47.853Z,16.28
2018-05-06T12:38:47.827Z,16.96
2018-05-06T12:39:47.796Z,17.44
2018-05-06T12:40:47.762Z,18.90
2018-05-06T12:41:47.734Z,18.50
2018-05-06T12:42:47.707Z,18.99
2018-05-06T12:43:47.706Z,18.59
2018-05-06T12:44:47.647Z,19.08
2018-05-06T12:46:47.585Z,20.83
2018-05-06T12:47:47.557Z,20.93
2018-05-06T12:48:47.526Z,20.93
2018-05-06T12:49:47.493Z,20.72
2018-05-06T12:50:47.463Z,20.82
2018-05-06T12:51:47.430Z,20.82
2018-05-06T12:52:47.453Z,20.92
2018-05-06T12:53:47.371Z,20.81
2018-05-06T12:54:47.339Z,20.71